DAFH

Hassi R'Mel Airport

Algeria
TAF DAFH 181100Z 1812/1821 34012KT 9999 FEW030 PROB30 TEMPO 1812/1815 34015G30KT 5000 DRSA BECMG 1818/1821 VRB02KT
Issued Valid From Valid To
Oct-18 @ 11:00 UTC
(an hour ago)
Oct-18 @ 12:00 UTC
(21 minutes ago)
Oct-18 @ 21:00 UTC
(in 9 hours)
Oct-18 @ 12:00 to Oct-18 @ 18:00
TAF DAFH 181100Z 1812/1821 34012KT 9999 FEW030
Wind Visibility Clouds
340° at 12 knots 10,000+ meters
  • Few at 3,000' AGL
Temporary  (Probability 30%) Oct-18 @ 12:00 to Oct-18 @ 15:00
PROB30 TEMPO 1812/1815 34015G30KT 5000 DRSA
Wind Visibility Conditions
340° at 15 knots
 Gusting to 30 knots
5,005 meters
  • Low drifting
  • Sand
Becoming Oct-18 @ 18:00 to Oct-18 @ 21:00
BECMG 1818/1821 VRB02KT
Wind Visibility Clouds
Variable at 2 knots 10,000+ meters
  • Few at 3,000' AGL
TAF DAFH 181100Z 1812/1821 34012KT 9999 FEW030 PROB30 TEMPO 1812/1815 34015G30KT 5000 DRSA BECMG 1818/1821 VRB02KT
Issued Oct-18 @ 11:00 UTC
(an hour ago)
Valid From Oct-18 @ 12:00 UTC
(21 minutes ago)
Valid To Oct-18 @ 21:00 UTC
(in 9 hours)
Oct-18 @ 12:00 - Oct-18 @ 18:00
Wind Visibility
340° at 12 knots 10,000+ meters
Clouds
  • Few at 3,000' AGL
Probability 30% Temporary Oct-18 @ 12:00 - Oct-18 @ 15:00
Wind Visibility
340° at 15 knots
 Gusting to 30 knots
5,005 meters
Conditions
  • Low drifting
  • Sand
Becoming Oct-18 @ 18:00 - Oct-18 @ 21:00
Wind Visibility
Variable at 2 knots 10,000+ meters
Clouds
  • Few at 3,000' AGL